Time;durP1;ratioP1;P1;durP2;ratioP2;P2;SDS_P1;SDS_P2;PMS_P1;PMS_P2;Temp;Humidity;BMP_temperature;BMP_pressure;BME280_temperature;BME280_humidity;BME280_pressure;Samples;Min_cycle;Max_cycle;Signal;HPM_P1;HPM_P2
2021/11/04 00:00:19;;;;;;;5.75;2.55;;;7.30;99.90;;;;;;5068116;28;20250;-86
2021/11/04 00:02:46;;;;;;;3.88;3.03;;;;;;;;;;5069869;28;20677;-85
2021/11/04 00:05:14;;;;;;;3.15;2.58;;;;;;;;;;5068566;28;20212;-87
2021/11/04 00:07:41;;;;;;;3.30;3.00;;;;;;;;;;5063708;28;20778;-87
2021/11/04 00:10:11;;;;;;;3.60;3.30;;;7.40;99.90;;;;;;5068598;28;20756;-87
2021/11/04 00:12:38;;;;;;;3.33;2.97;;;;;;;;;;5069401;28;20249;-87
2021/11/04 00:15:06;;;;;;;3.10;2.80;;;;;;;;;;5069062;28;20245;-86
2021/11/04 00:17:33;;;;;;;3.13;2.88;;;;;;;;;;5064839;28;20212;-87
2021/11/04 00:20:01;;;;;;;4.20;2.75;;;;;;;;;;5066926;28;20196;-86
2021/11/04 00:22:28;;;;;;;2.50;2.30;;;;;;;;;;5071712;28;20261;-87
2021/11/04 00:24:57;;;;;;;3.72;3.42;;;;;;;;;;5072572;28;20192;-87
2021/11/04 00:27:25;;;;;;;4.30;2.55;;;;;;;;;;5073135;28;20219;-86
2021/11/04 00:29:52;;;;;;;3.38;2.92;;;;;;;;;;5072534;28;20228;-87
2021/11/04 00:32:23;;;;;;;3.17;2.97;;;;;;;;;;5071555;28;20207;-87
2021/11/04 00:34:55;;;;;;;3.17;2.95;;;;;;;;;;5071803;28;20204;-88
2021/11/04 00:37:26;;;;;;;2.90;2.42;;;;;;;;;;5072905;28;20203;-86
2021/11/04 00:39:54;;;;;;;3.15;2.65;;;;;;;;;;5072415;28;20196;-86
2021/11/04 00:42:22;;;;;;;3.35;3.05;;;;;;;;;;5071385;28;20233;-87
2021/11/04 00:44:53;;;;;;;2.83;2.63;;;;;;;;;;5072056;28;20864;-87
2021/11/04 00:47:23;;;;;;;2.90;2.50;;;;;;;;;;5072530;28;20273;-87
2021/11/04 00:49:50;;;;;;;2.95;2.65;;;;;;;;;;5071969;28;20223;-86
2021/11/04 00:52:18;;;;;;;2.40;2.20;;;;;;;;;;5071740;28;20224;-86
2021/11/04 00:54:45;;;;;;;2.35;2.15;;;;;;;;;;5072231;28;20599;-86
2021/11/04 00:57:12;;;;;;;2.83;2.40;;;;;;;;;;5071669;28;20601;-86
2021/11/04 00:59:39;;;;;;;2.45;2.25;;;;;;;;;;5072016;28;20646;-86
2021/11/04 01:02:08;;;;;;;2.05;1.90;;;;;;;;;;5071550;28;20202;-86
2021/11/04 01:04:35;;;;;;;2.67;2.25;;;;;;;;;;5071958;28;20192;-86
2021/11/04 01:07:03;;;;;;;2.50;2.30;;;;;;;;;;5072193;28;20303;-86
2021/11/04 01:09:32;;;;;;;2.67;2.47;;;;;;;;;;5071577;28;20207;-87
2021/11/04 01:11:59;;;;;;;1.95;1.83;;;;;;;;;;5071187;28;20232;-86
2021/11/04 01:14:26;;;;;;;3.15;2.40;;;;;;;;;;5066332;28;20269;-87
2021/11/04 01:16:54;;;;;;;1.88;1.75;;;;;;;;;;5052358;28;20617;-87
2021/11/04 01:19:25;;;;;;;2.72;2.53;;;;;;;;;;5067811;28;20253;-86
2021/11/04 01:21:52;;;;;;;2.00;1.90;;;;;;;;;;5071436;28;20200;-87
2021/11/04 01:24:19;;;;;;;2.40;2.10;;;;;;;;;;5071080;28;20254;-86
2021/11/04 01:26:46;;;;;;;2.25;2.05;;;;;;;;;;5071844;28;20258;-86
2021/11/04 01:29:14;;;;;;;2.08;1.88;;;;;;;;;;5071200;28;20625;-87
2021/11/04 01:31:41;;;;;;;2.10;2.00;;;;;;;;;;5070240;28;20235;-87
2021/11/04 01:34:11;;;;;;;2.53;2.33;;;;;;;;;;5071035;28;20532;-86
2021/11/04 01:36:39;;;;;;;2.45;2.25;;;;;;;;;;5070795;28;20204;-86
2021/11/04 01:39:07;;;;;;;1.98;1.88;;;;;;;;;;5071284;28;20252;-87
2021/11/04 01:41:37;;;;;;;1.90;1.80;;;;;;;;;;5069953;28;20212;-87
2021/11/04 01:44:04;;;;;;;2.47;2.25;;;;;;;;;;5071929;28;20222;-86
2021/11/04 01:46:32;;;;;;;2.10;1.90;;;;;;;;;;5070702;28;20234;-86
2021/11/04 01:49:04;;;;;;;2.03;1.83;;;;;;;;;;5071417;28;20204;-86
2021/11/04 01:51:31;;;;;;;1.35;1.25;;;;;;;;;;5070550;28;20692;-86
2021/11/04 01:54:00;;;;;;;1.85;1.75;;;;;;;;;;5071421;28;20253;-86
2021/11/04 01:56:27;;;;;;;1.75;1.65;;;;;;;;;;5070797;28;20282;-86
2021/11/04 01:58:54;;;;;;;3.40;1.70;;;;;;;;;;5071306;28;20233;-86
2021/11/04 02:01:22;;;;;;;2.03;1.80;;;;;;;;;;5070345;28;20336;-87
2021/11/04 02:03:58;;;;;;;2.15;1.95;;;7.10;99.90;;;;;;5069874;28;20879;-88
2021/11/04 02:06:33;;;;;;;2.20;2.00;;;7.10;99.90;;;;;;5070603;28;20227;-86
2021/11/04 02:09:07;;;;;;;2.00;1.90;;;7.10;99.90;;;;;;5070282;28;20223;-85
2021/11/04 02:11:38;;;;;;;1.95;1.80;;;6.90;99.90;;;;;;5069636;28;20219;-87
2021/11/04 02:14:08;;;;;;;1.95;1.75;;;;;;;;;;5070754;28;20728;-85
2021/11/04 02:16:36;;;;;;;2.60;1.65;;;6.90;99.90;;;;;;5070668;28;20270;-86
2021/11/04 02:19:21;;;;;;;1.77;1.48;;;6.90;99.90;;;;;;5065702;28;20223;-87
2021/11/04 02:21:56;;;;;;;2.20;2.00;;;6.90;99.90;;;;;;5070439;28;20294;-87
2021/11/04 02:24:34;;;;;;;2.50;1.70;;;6.70;99.90;;;;;;5070786;28;20198;-86
2021/11/04 02:27:04;;;;;;;2.20;2.08;;;6.70;99.90;;;;;;5070803;28;20219;-86
2021/11/04 02:29:32;;;;;;;2.03;1.92;;;;;;;;;;5070860;28;20188;-86
2021/11/04 02:32:00;;;;;;;1.60;1.50;;;;;;;;;;5070203;28;20238;-86
2021/11/04 02:34:28;;;;;;;2.15;1.98;;;6.70;99.90;;;;;;5070438;28;20603;-85
2021/11/04 02:36:55;;;;;;;2.03;1.92;;;;;;;;;;5070141;28;20214;-85
2021/11/04 02:39:22;;;;;;;3.25;2.70;;;;;;;;;;5069827;28;20305;-85
2021/11/04 02:41:49;;;;;;;2.80;2.55;;;6.30;99.90;;;;;;5069160;28;20200;-85
2021/11/04 02:44:18;;;;;;;2.65;2.45;;;;;;;;;;5070234;28;20231;-87
2021/11/04 02:46:46;;;;;;;2.83;2.63;;;;;;;;;;5070246;28;20192;-86
2021/11/04 02:49:13;;;;;;;3.08;2.67;;;;;;;;;;5070010;28;20214;-87
2021/11/04 02:51:40;;;;;;;2.05;1.85;;;;;;;;;;5069023;28;20218;-85
2021/11/04 02:54:08;;;;;;;2.55;2.35;;;;;;;;;;5070938;28;20203;-86
2021/11/04 02:56:45;;;;;;;1.92;1.80;;;;;;;;;;5069508;28;20234;-87
2021/11/04 02:59:13;;;;;;;1.83;1.73;;;;;;;;;;5070270;28;20195;-86
2021/11/04 03:01:43;;;;;;;1.83;1.73;;;6.10;99.90;;;;;;5069447;28;20223;-87
2021/11/04 03:04:11;;;;;;;1.45;1.35;;;;;;;;;;5069248;28;20270;-86
2021/11/04 03:06:39;;;;;;;1.80;1.70;;;;;;;;;;5070105;28;20284;-86
2021/11/04 03:09:06;;;;;;;1.63;1.40;;;;;;;;;;5070326;28;20285;-85
2021/11/04 03:11:33;;;;;;;2.05;1.35;;;;;;;;;;5068734;28;20302;-86
2021/11/04 03:14:00;;;;;;;2.28;0.90;;;;;;;;;;5058755;28;20291;-85
2021/11/04 03:16:31;;;;;;;1.33;1.17;;;6.00;99.90;;;;;;5050537;28;20216;-85
2021/11/04 03:19:00;;;;;;;1.25;1.17;;;;;;;;;;5068392;28;20644;-86
2021/11/04 03:21:30;;;;;;;1.55;1.45;;;5.90;99.90;;;;;;5067832;28;20195;-86
2021/11/04 03:23:58;;;;;;;2.05;1.00;;;5.80;99.90;;;;;;5057921;28;20216;-85
2021/11/04 03:26:26;;;;;;;2.80;1.40;;;;;;;;;;5066555;28;20194;-86
2021/11/04 03:28:54;;;;;;;1.30;1.20;;;5.70;99.90;;;;;;5069099;28;20269;-86
2021/11/04 03:31:21;;;;;;;0.90;0.90;;;6.00;99.90;;;;;;5068135;28;20191;-86
2021/11/04 03:33:50;;;;;;;0.85;0.85;;;5.90;99.90;;;;;;5069936;28;20219;-85
2021/11/04 03:36:21;;;;;;;1.20;1.10;;;5.70;99.90;;;;;;5069449;28;20202;-86
2021/11/04 03:38:50;;;;;;;1.17;1.15;;;5.60;99.90;;;;;;5069955;28;20605;-85
2021/11/04 03:41:19;;;;;;;1.27;1.17;;;5.80;99.90;;;;;;5068512;28;20237;-85
2021/11/04 03:43:47;;;;;;;1.30;1.20;;;5.60;99.90;;;;;;5068980;28;20200;-85
2021/11/04 03:46:14;;;;;;;1.30;1.20;;;5.90;99.90;;;;;;5070141;28;20191;-86
2021/11/04 03:48:43;;;;;;;1.05;0.95;;;5.70;99.90;;;;;;5069528;28;20689;-86
2021/11/04 03:51:10;;;;;;;0.90;0.90;;;4.80;99.90;;;;;;5068716;28;20192;-86
2021/11/04 03:53:40;;;;;;;0.85;0.85;;;5.90;99.90;;;;;;5069325;28;20227;-86
2021/11/04 03:56:08;;;;;;;1.02;0.90;;;5.60;99.90;;;;;;5070872;28;20238;-85
2021/11/04 03:58:39;;;;;;;1.00;1.00;;;5.60;99.90;;;;;;5073348;28;20268;-85
2021/11/04 04:01:07;;;;;;;1.10;1.00;;;5.80;99.90;;;;;;5072763;28;20286;-85
2021/11/04 04:03:34;;;;;;;1.02;1.02;;;;;;;;;;5073312;28;20195;-86
2021/11/04 04:06:03;;;;;;;3.17;1.15;;;5.50;99.90;;;;;;5073420;28;20257;-86
2021/11/04 04:08:31;;;;;;;1.13;1.00;;;5.60;99.90;;;;;;5067630;28;20255;-86
2021/11/04 04:11:00;;;;;;;1.45;1.05;;;5.60;99.90;;;;;;5072078;28;20196;-85
2021/11/04 04:13:28;;;;;;;1.30;1.20;;;;;;;;;;5073344;28;20237;-85
2021/11/04 04:15:55;;;;;;;1.50;1.05;;;;;;;;;;5073196;28;20226;-86
2021/11/04 04:18:22;;;;;;;1.17;1.08;;;;;;;;;;5073142;28;20192;-84
2021/11/04 04:20:50;;;;;;;2.78;1.50;;;5.70;99.90;;;;;;5071539;28;20200;-84
2021/11/04 04:23:18;;;;;;;1.70;1.60;;;5.70;99.90;;;;;;5072799;28;20196;-85
2021/11/04 04:25:45;;;;;;;1.30;1.20;;;;;;;;;;5072958;28;20223;-86
2021/11/04 04:28:14;;;;;;;4.70;3.67;;;;;;;;;;5072921;28;20307;-86
2021/11/04 04:30:41;;;;;;;2.58;2.38;;;;;;;;;;5072665;28;20230;-86
2021/11/04 04:33:09;;;;;;;2.03;1.90;;;;;;;;;;5072843;28;20196;-87
2021/11/04 04:35:36;;;;;;;2.92;2.13;;;;;;;;;;5072764;28;20271;-85
2021/11/04 04:38:03;;;;;;;1.65;1.55;;;;;;;;;;5072217;28;20200;-86
2021/11/04 04:40:31;;;;;;;1.80;1.70;;;;;;;;;;5071973;28;20227;-85
2021/11/04 04:42:59;;;;;;;1.30;1.20;;;;;;;;;;5072165;28;20203;-86
2021/11/04 04:45:29;;;;;;;2.60;2.40;;;5.80;99.90;;;;;;5072465;28;20196;-86
2021/11/04 04:47:58;;;;;;;1.80;1.70;;;;;;;;;;5072284;28;20227;-86
2021/11/04 04:50:26;;;;;;;1.10;1.10;;;;;;;;;;5072010;28;20199;-86
2021/11/04 04:52:54;;;;;;;1.20;1.10;;;;;;;;;;5072923;28;20207;-86
2021/11/04 04:55:22;;;;;;;1.40;1.30;;;;;;;;;;5072151;28;20302;-85
2021/11/04 04:57:49;;;;;;;1.13;1.10;;;;;;;;;;5072633;28;20192;-87
2021/11/04 05:00:17;;;;;;;1.50;1.42;;;5.80;99.90;;;;;;5071517;28;20196;-86
2021/11/04 05:02:46;;;;;;;1.55;1.45;;;;;;;;;;5072200;28;20290;-87
2021/11/04 05:05:14;;;;;;;1.77;1.33;;;;;;;;;;5066140;28;20258;-86
2021/11/04 05:07:42;;;;;;;1.40;1.30;;;;;;;;;;5071870;28;20224;-87
2021/11/04 05:10:11;;;;;;;1.20;1.10;;;;;;;;;;5071732;28;20266;-86
2021/11/04 05:12:38;;;;;;;1.00;1.00;;;;;;;;;;5071615;28;20196;-87
2021/11/04 05:15:06;;;;;;;0.95;0.95;;;;;;;;;;5063373;28;20245;-86
2021/11/04 05:17:36;;;;;;;1.02;0.93;;;;;;;;;;5071576;28;20638;-86
2021/11/04 05:20:05;;;;;;;0.85;0.85;;;;;;;;;;5070547;28;20256;-86
2021/11/04 05:22:32;;;;;;;1.48;1.20;;;;;;;;;;5071810;28;20611;-87
2021/11/04 05:24:59;;;;;;;1.35;1.25;;;;;;;;;;5067071;28;20289;-86
2021/11/04 05:27:28;;;;;;;1.10;1.00;;;;;;;;;;5070351;28;20751;-86
2021/11/04 05:29:56;;;;;;;1.00;0.90;;;;;;;;;;5071475;28;20306;-85
2021/11/04 05:32:23;;;;;;;0.82;0.73;;;;;;;;;;5071222;28;20200;-87
2021/11/04 05:34:50;;;;;;;0.77;0.77;;;;;;;;;;5060166;28;20262;-88
2021/11/04 05:37:19;;;;;;;0.90;0.90;;;5.70;99.90;;;;;;5070505;28;20204;-84
2021/11/04 05:39:46;;;;;;;1.25;0.98;;;;;;;;;;5069261;28;20311;-88
2021/11/04 05:42:13;;;;;;;1.17;1.08;;;;;;;;;;5069238;28;20980;-86
2021/11/04 05:44:40;;;;;;;1.42;1.10;;;;;;;;;;5070822;28;20196;-87
2021/11/04 05:47:08;;;;;;;0.80;0.80;;;5.50;99.90;;;;;;5071608;28;20199;-86
2021/11/04 05:49:35;;;;;;;1.20;0.98;;;;;;;;;;5070980;28;20300;-87
2021/11/04 05:52:02;;;;;;;3.25;1.02;;;;;;;;;;5068949;28;20195;-87
2021/11/04 05:54:31;;;;;;;1.73;1.00;;;;;;;;;;5071429;28;20192;-86
2021/11/04 05:56:58;;;;;;;1.15;1.05;;;;;;;;;;5071054;28;20191;-87
2021/11/04 05:59:25;;;;;;;3.42;1.13;;;;;;;;;;5071162;28;20199;-86
2021/11/04 06:01:53;;;;;;;2.28;1.30;;;;;;;;;;5069858;28;20246;-87
2021/11/04 06:04:20;;;;;;;1.30;1.20;;;5.40;99.90;;;;;;5071719;28;20210;-86
2021/11/04 06:06:47;;;;;;;1.17;1.08;;;;;;;;;;5068936;28;20196;-86
2021/11/04 06:09:15;;;;;;;1.77;1.30;;;;;;;;;;5070417;28;20677;-87
2021/11/04 06:11:43;;;;;;;1.35;0.98;;;;;;;;;;5069795;28;20223;-86
2021/11/04 06:14:10;;;;;;;3.03;1.15;;;;;;;;;;5071197;28;20211;-85
2021/11/04 06:16:38;;;;;;;1.35;1.25;;;;;;;;;;5069571;28;20209;-86
2021/11/04 06:19:05;;;;;;;0.98;0.90;;;;;;;;;;5068042;28;20261;-86
2021/11/04 06:21:32;;;;;;;1.55;1.40;;;;;;;;;;5065706;28;20288;-87
2021/11/04 06:23:59;;;;;;;2.05;1.95;;;;;;;;;;5069416;28;20279;-87
2021/11/04 06:26:29;;;;;;;1.83;1.50;;;;;;;;;;5070158;28;20192;-86
2021/11/04 06:28:57;;;;;;;1.77;1.60;;;;;;;;;;5070812;28;20235;-86
2021/11/04 06:31:24;;;;;;;3.00;1.35;;;;;;;;;;5069094;28;20205;-88
2021/11/04 06:33:52;;;;;;;2.75;1.90;;;;;;;;;;5070683;28;20199;-87
2021/11/04 06:36:19;;;;;;;2.03;1.60;;;;;;;;;;5064643;28;20246;-87
2021/11/04 06:38:46;;;;;;;1.88;1.77;;;;;;;;;;5069374;28;20237;-87
2021/11/04 06:41:13;;;;;;;4.70;1.73;;;;;;;;;;5069735;28;20748;-87
2021/11/04 06:43:43;;;;;;;1.88;1.73;;;;;;;;;;5069068;28;20195;-87
2021/11/04 06:46:13;;;;;;;1.27;1.17;;;5.70;99.90;;;;;;5066990;28;20214;-88
2021/11/04 06:48:43;;;;;;;4.10;1.42;;;5.80;99.90;;;;;;5069174;28;20251;-87
2021/11/04 06:51:11;;;;;;;1.40;1.30;;;;;;;;;;5068492;28;20195;-87
2021/11/04 06:53:43;;;;;;;1.90;1.40;;;5.80;99.90;;;;;;5068680;28;20200;-88
2021/11/04 06:56:11;;;;;;;1.00;1.00;;;;;;;;;;5070781;28;20550;-87
2021/11/04 06:58:39;;;;;;;1.55;1.45;;;5.90;99.90;;;;;;5069429;28;20230;-87
2021/11/04 07:01:17;;;;;;;1.33;1.23;;;5.80;99.90;;;;;;5071488;28;20261;-85
2021/11/04 07:03:50;;;;;;;1.30;1.20;;;5.80;99.90;;;;;;5067543;28;20860;-86
2021/11/04 07:06:23;;;;;;;0.95;0.88;;;;;;;;;;5066305;28;20203;-88
2021/11/04 07:08:55;;;;;;;0.90;0.90;;;5.90;99.90;;;;;;5068921;28;20254;-87
2021/11/04 07:11:24;;;;;;;5.30;1.10;;;;;;;;;;5069693;28;20199;-87
2021/11/04 07:13:52;;;;;;;1.40;1.30;;;5.80;99.90;;;;;;5069713;28;20250;-87
2021/11/04 07:16:22;;;;;;;0.93;0.90;;;;;;;;;;5067225;28;20231;-86
2021/11/04 07:18:50;;;;;;;1.15;1.00;;;;;;;;;;5065121;28;20258;-89
2021/11/04 07:21:23;;;;;;;0.95;0.85;;;5.60;99.90;;;;;;5069848;28;20235;-87
2021/11/04 07:23:58;;;;;;;1.35;1.25;;;5.60;99.90;;;;;;5069887;28;20249;-87
2021/11/04 07:26:30;;;;;;;1.73;1.45;;;;;;;;;;5070175;28;20899;-87
2021/11/04 07:28:59;;;;;;;4.20;1.25;;;5.70;99.90;;;;;;5069142;28;20309;-88
2021/11/04 07:31:28;;;;;;;1.38;1.23;;;5.70;99.90;;;;;;5071837;28;20199;-87
2021/11/04 07:33:55;;;;;;;2.50;1.35;;;;;;;;;;5071789;28;20223;-88
2021/11/04 07:36:24;;;;;;;1.63;1.52;;;5.90;99.90;;;;;;5072873;28;20199;-87
2021/11/04 07:38:52;;;;;;;1.27;1.17;;;5.90;99.90;;;;;;5073691;28;20207;-88
2021/11/04 07:41:19;;;;;;;1.25;1.15;;;;;;;;;;5071409;28;20615;-88
2021/11/04 07:43:48;;;;;;;2.50;1.75;;;;;;;;;;5073327;28;20192;-87
2021/11/04 07:46:15;;;;;;;1.73;1.63;;;;;;;;;;5072507;28;20676;-86
2021/11/04 07:48:44;;;;;;;1.67;1.30;;;;;;;;;;5070002;28;21079;-85
2021/11/04 07:51:11;;;;;;;1.70;1.40;;;;;;;;;;5053610;28;20200;-86
2021/11/04 07:53:40;;;;;;;3.58;1.77;;;6.00;99.90;;;;;;5061217;28;20229;-88
2021/11/04 07:56:08;;;;;;;1.48;1.38;;;;;;;;;;5071476;28;20200;-85
2021/11/04 07:58:36;;;;;;;1.80;1.70;;;;;;;;;;5079690;28;20195;-86
2021/11/04 08:01:03;;;;;;;1.85;1.67;;;5.50;99.90;;;;;;5083535;28;20667;-84
2021/11/04 08:03:30;;;;;;;2.30;2.05;;;5.80;99.90;;;;;;5071879;28;20288;-85
2021/11/04 08:05:58;;;;;;;3.63;1.85;;;6.20;99.90;;;;;;5073520;28;20214;-86
2021/11/04 08:08:26;;;;;;;3.78;1.70;;;;;;;;;;5073956;28;20246;-85
2021/11/04 08:10:53;;;;;;;1.60;1.48;;;;;;;;;;5072113;28;20257;-87
2021/11/04 08:13:20;;;;;;;2.40;2.03;;;;;;;;;;5082169;28;20301;-86
2021/11/04 08:15:48;;;;;;;2.03;1.88;;;;;;;;;;5064979;28;20272;-86
2021/11/04 08:18:16;;;;;;;2.28;1.88;;;;;;;;;;5070257;28;20592;-86
2021/11/04 08:20:43;;;;;;;2.88;1.73;;;;;;;;;;5071328;28;20222;-84
2021/11/04 08:23:12;;;;;;;2.33;1.85;;;;;;;;;;5072475;28;20196;-86
2021/11/04 08:25:40;;;;;;;2.50;2.30;;;5.70;99.90;;;;;;5072192;28;20206;-86
2021/11/04 08:28:07;;;;;;;2.05;1.85;;;;;;;;;;5073222;28;20253;-86
2021/11/04 08:30:34;;;;;;;2.83;1.95;;;;;;;;;;5053371;28;20232;-86
2021/11/04 08:33:02;;;;;;;2.53;2.33;;;;;;;;;;5067573;28;20274;-86
2021/11/04 08:35:34;;;;;;;1.98;1.83;;;;;;;;;;5071629;28;20602;-86
2021/11/04 08:38:01;;;;;;;2.30;2.10;;;;;;;;;;5072974;28;20207;-86
2021/11/04 08:40:30;;;;;;;3.65;2.95;;;;;;;;;;5072215;28;20685;-86
2021/11/04 08:42:58;;;;;;;2.40;1.90;;;;;;;;;;5072578;28;20202;-86
2021/11/04 08:45:28;;;;;;;4.40;2.45;;;;;;;;;;5071349;28;20210;-86
2021/11/04 08:47:55;;;;;;;2.40;2.20;;;;;;;;;;5072433;28;20260;-84
2021/11/04 08:50:22;;;;;;;3.05;2.75;;;;;;;;;;5072301;28;20243;-85
2021/11/04 08:52:52;;;;;;;2.78;2.20;;;;;;;;;;5072429;28;20194;-85
2021/11/04 08:55:19;;;;;;;4.00;3.00;;;;;;;;;;5072075;28;20196;-86
2021/11/04 08:57:51;;;;;;;2.38;2.10;;;;;;;;;;5072136;28;20252;-85
2021/11/04 09:00:19;;;;;;;3.35;2.40;;;;;;;;;;5071826;28;20202;-85
2021/11/04 09:02:47;;;;;;;4.75;3.80;;;;;;;;;;5064690;28;20286;-85
2021/11/04 09:05:14;;;;;;;3.30;3.00;;;;;;;;;;5071098;28;20278;-86
2021/11/04 09:07:43;;;;;;;2.97;2.40;;;;;;;;;;5072122;28;20234;-85
2021/11/04 09:10:12;;;;;;;3.40;2.40;;;5.70;99.90;;;;;;5071350;28;20223;-84
2021/11/04 09:12:40;;;;;;;4.80;2.33;;;5.50;99.90;;;;;;5070261;28;20245;-84
2021/11/04 09:15:11;;;;;;;2.50;2.30;;;5.60;99.90;;;;;;5066295;28;20191;-83
2021/11/04 09:20:29;;;;;;;2.28;1.90;;;;;;;;;;5069630;28;20311;-86
2021/11/04 09:22:57;;;;;;;2.80;2.08;;;;;;;;;;5072005;28;20196;-86
2021/11/04 09:25:24;;;;;;;2.50;2.30;;;;;;;;;;5070033;28;20256;-84
2021/11/04 09:27:52;;;;;;;3.13;2.70;;;5.70;99.90;;;;;;5078512;28;20253;-85
2021/11/04 09:30:20;;;;;;;2.50;2.30;;;;;;;;;;5077433;28;20234;-84
2021/11/04 09:32:48;;;;;;;4.10;3.35;;;;;;;;;;5080037;28;20198;-85
2021/11/04 09:35:15;;;;;;;5.32;2.80;;;;;;;;;;5076965;28;20233;-85
2021/11/04 09:37:42;;;;;;;2.60;2.40;;;;;;;;;;5070827;28;20283;-85
2021/11/04 09:40:11;;;;;;;3.03;2.53;;;6.00;99.90;;;;;;5082409;28;20195;-84
2021/11/04 09:42:38;;;;;;;3.50;1.80;;;;;;;;;;5076306;28;20206;-85
2021/11/04 09:45:06;;;;;;;3.55;3.05;;;;;;;;;;5075380;28;20196;-85
2021/11/04 09:47:35;;;;;;;3.55;2.58;;;5.90;99.90;;;;;;5080264;28;20675;-85
2021/11/04 09:50:06;;;;;;;1.70;1.60;;;6.00;99.90;;;;;;5070144;28;20242;-85
2021/11/04 09:52:35;;;;;;;2.13;1.85;;;6.00;99.90;;;;;;5080770;28;20212;-83
2021/11/04 09:55:07;;;;;;;2.10;1.60;;;6.00;99.90;;;;;;5076116;28;20200;-84
2021/11/04 09:57:37;;;;;;;3.17;2.08;;;;;;;;;;5066538;28;20200;-84
2021/11/04 10:00:09;;;;;;;1.92;1.58;;;5.90;99.90;;;;;;5070344;28;20719;-84
2021/11/04 10:02:39;;;;;;;2.50;1.80;;;;;;;;;;5068894;28;20257;-85
2021/11/04 10:05:08;;;;;;;1.73;1.63;;;5.70;99.90;;;;;;5070321;28;20199;-85
2021/11/04 10:07:42;;;;;;;1.60;1.50;;;;;;;;;;5070616;28;20283;-85
2021/11/04 10:10:09;;;;;;;1.63;1.52;;;;;;;;;;5070664;28;20226;-84
2021/11/04 10:12:37;;;;;;;1.70;1.60;;;;;;;;;;5070585;28;20249;-84
2021/11/04 10:15:16;;;;;;;1.77;1.55;;;;;;;;;;5070530;28;20192;-85
2021/11/04 10:17:45;;;;;;;1.85;1.70;;;;;;;;;;5070503;28;20261;-85
2021/11/04 10:20:17;;;;;;;2.10;1.90;;;5.90;99.90;;;;;;5069463;28;20219;-84
2021/11/04 10:22:45;;;;;;;1.50;1.40;;;;;;;;;;5070470;28;20199;-86
2021/11/04 10:25:27;;;;;;;3.20;1.77;;;6.00;99.90;;;;;;5067083;28;20234;-85
2021/11/04 10:27:54;;;;;;;1.20;1.10;;;;;;;;;;5067009;28;20336;-85
2021/11/04 10:30:39;;;;;;;1.27;1.17;;;6.10;99.90;;;;;;5068680;28;20308;-85
2021/11/04 10:33:30;;;;;;;1.38;1.27;;;6.10;99.90;;;;;;5070093;28;20563;-84
2021/11/04 10:36:06;;;;;;;1.25;1.15;;;6.00;99.90;;;;;;5066683;28;20215;-84
2021/11/04 10:38:44;;;;;;;1.08;0.98;;;6.10;99.90;;;;;;5068695;28;20256;-83
2021/11/04 10:41:18;;;;;;;3.30;1.38;;;6.10;99.90;;;;;;5066889;28;20192;-84
2021/11/04 10:43:48;;;;;;;1.42;1.33;;;6.10;99.90;;;;;;5066193;28;20284;-85
2021/11/04 10:46:16;;;;;;;1.60;1.38;;;;;;;;;;5067795;28;20195;-85
2021/11/04 10:48:46;;;;;;;1.85;1.30;;;6.10;99.90;;;;;;5068915;28;20195;-85
2021/11/04 10:51:15;;;;;;;1.45;1.35;;;5.90;99.90;;;;;;5067044;28;20696;-85
2021/11/04 10:53:42;;;;;;;1.67;1.58;;;;;;;;;;5068086;28;20560;-85
2021/11/04 10:56:22;;;;;;;1.77;1.67;;;6.20;99.90;;;;;;5069541;28;20195;-85
2021/11/04 10:59:01;;;;;;;1.55;1.45;;;6.20;99.90;;;;;;5069480;28;20195;-85
2021/11/04 11:01:31;;;;;;;1.50;1.40;;;6.20;99.90;;;;;;5068685;28;20233;-85
2021/11/04 11:04:04;;;;;;;2.05;1.73;;;6.40;99.90;;;;;;5061110;28;20222;-85
2021/11/04 11:06:32;;;;;;;1.73;1.30;;;;;;;;;;5069713;28;20196;-84
2021/11/04 11:09:00;;;;;;;2.65;1.58;;;;;;;;;;5068991;28;20223;-84
2021/11/04 11:11:27;;;;;;;2.85;1.50;;;6.40;99.90;;;;;;5062337;28;20219;-85
2021/11/04 11:13:54;;;;;;;1.50;1.40;;;;;;;;;;5067648;28;20199;-84
2021/11/04 11:16:21;;;;;;;3.17;2.53;;;;;;;;;;5069452;28;20184;-84
2021/11/04 11:18:49;;;;;;;1.83;1.70;;;;;;;;;;5069990;28;20255;-85
2021/11/04 11:21:17;;;;;;;1.90;1.80;;;;;;;;;;5069446;28;20270;-85
2021/11/04 11:23:44;;;;;;;2.35;2.10;;;;;;;;;;5069426;28;20192;-85
2021/11/04 11:26:15;;;;;;;1.98;1.88;;;6.20;99.90;;;;;;5069198;28;20226;-85
2021/11/04 11:28:42;;;;;;;2.38;2.13;;;6.70;99.90;;;;;;5068969;28;20669;-85
2021/11/04 11:31:21;;;;;;;2.40;2.05;;;6.30;99.90;;;;;;5068717;28;20235;-85
2021/11/04 11:34:11;;;;;;;3.08;2.20;;;6.30;99.90;;;;;;5069371;28;20235;-85
2021/11/04 11:36:40;;;;;;;4.15;2.88;;;;;;;;;;5068471;28;20215;-85
2021/11/04 11:39:10;;;;;;;4.28;2.90;;;;;;;;;;5069382;28;20196;-86
2021/11/04 11:42:08;;;;;;;3.78;3.03;;;6.40;99.90;;;;;;5061722;28;20297;-85
2021/11/04 11:44:44;;;;;;;3.95;3.03;;;6.20;99.90;;;;;;5053767;28;20267;-85
2021/11/04 11:47:34;;;;;;;;;;;;;;;;;;;;;
2021/11/04 11:50:26;;;;;;;5.90;4.05;;;6.20;99.90;;;;;;5062347;28;20255;-85
2021/11/04 11:52:56;;;;;;;5.18;4.22;;;6.30;99.90;;;;;;5069405;28;20211;-86
2021/11/04 11:55:33;;;;;;;5.32;4.30;;;6.10;99.90;;;;;;5067231;28;20191;-86
2021/11/04 11:58:20;;;;;;;5.30;4.80;;;6.40;99.90;;;;;;5069149;28;20285;-85
2021/11/04 12:01:08;;;;;;;;;;;;;;;;;;;;;
2021/11/04 12:04:23;;;;;;;4.93;4.47;;;6.40;99.90;;;;;;5046603;28;20215;-86
2021/11/04 12:06:51;;;;;;;6.78;4.45;;;;;;;;;;5049450;28;20295;-86
2021/11/04 12:09:41;;;;;;;6.82;5.00;;;6.40;99.90;;;;;;5053320;28;20273;-86
2021/11/04 12:12:29;;;;;;;5.63;4.75;;;6.40;99.90;;;;;;5068393;28;20284;-86
2021/11/04 12:15:01;;;;;;;4.35;3.95;;;6.40;99.90;;;;;;5067508;28;20602;-85
2021/11/04 12:17:28;;;;;;;6.32;5.30;;;;;;;;;;5071111;28;20283;-86
2021/11/04 12:19:59;;;;;;;5.40;4.70;;;;;;;;;;5072414;28;20195;-87
2021/11/04 12:22:29;;;;;;;6.53;5.93;;;6.50;99.90;;;;;;5072051;28;20294;-86
2021/11/04 12:24:58;;;;;;;6.82;4.97;;;6.60;99.90;;;;;;5072680;28;20275;-86
2021/11/04 12:27:29;;;;;;;7.47;5.18;;;6.60;99.90;;;;;;5072590;28;20203;-87
2021/11/04 12:29:56;;;;;;;6.50;5.90;;;;;;;;;;5072386;28;20253;-86
2021/11/04 12:32:26;;;;;;;8.35;5.72;;;6.60;99.90;;;;;;5067036;28;20276;-86
2021/11/04 12:34:57;;;;;;;7.97;6.10;;;;;;;;;;5072971;28;20203;-86
2021/11/04 12:37:28;;;;;;;6.70;6.00;;;6.70;99.90;;;;;;5072053;28;21131;-85
2021/11/04 12:39:58;;;;;;;7.97;6.05;;;6.80;99.90;;;;;;5072322;28;20214;-86
2021/11/04 12:42:26;;;;;;;5.57;4.60;;;;;;;;;;5071897;28;20206;-87
2021/11/04 12:44:53;;;;;;;6.55;5.75;;;;;;;;;;5072279;28;20200;-87
2021/11/04 12:47:23;;;;;;;9.18;5.90;;;6.90;99.90;;;;;;5074104;28;20211;-86
2021/11/04 12:49:52;;;;;;;7.75;5.53;;;6.80;99.90;;;;;;5077879;28;20587;-86
2021/11/04 12:52:21;;;;;;;6.72;5.65;;;6.90;99.90;;;;;;5071890;28;20589;-86
2021/11/04 12:54:51;;;;;;;6.75;5.85;;;6.80;99.90;;;;;;5071578;28;20203;-86
2021/11/04 12:57:22;;;;;;;7.28;5.47;;;6.80;99.90;;;;;;5072308;28;20230;-84
2021/11/04 12:59:51;;;;;;;5.63;5.13;;;6.90;99.90;;;;;;5072115;28;20200;-87
2021/11/04 13:02:22;;;;;;;6.65;5.95;;;7.00;99.90;;;;;;5070967;28;20257;-86
2021/11/04 13:04:51;;;;;;;7.90;6.18;;;7.10;99.90;;;;;;5072190;28;20195;-86
2021/11/04 13:07:21;;;;;;;7.97;5.90;;;7.30;99.90;;;;;;5071818;28;20265;-86
2021/11/04 13:09:51;;;;;;;8.02;6.55;;;7.50;99.90;;;;;;5071700;28;20208;-86
2021/11/04 13:12:21;;;;;;;7.18;6.47;;;7.60;99.90;;;;;;5071207;28;20272;-86
2021/11/04 13:14:50;;;;;;;7.38;5.78;;;7.70;99.90;;;;;;5071471;28;20661;-86
2021/11/04 13:17:17;;;;;;;6.63;5.38;;;;;;;;;;5071981;28;20208;-87
2021/11/04 13:19:55;;;;;;;10.65;7.82;;;;;;;;;;5071842;28;20198;-86
2021/11/04 13:22:22;;;;;;;5.93;4.70;;;;;;;;;;5071272;28;20199;-87
2021/11/04 13:24:54;;;;;;;7.57;6.10;;;;;;;;;;5071571;28;20199;-86
2021/11/04 13:27:23;;;;;;;7.97;5.13;;;;;;;;;;5066781;28;20727;-87
2021/11/04 13:29:51;;;;;;;5.93;5.18;;;;;;;;;;5070536;28;20196;-86
2021/11/04 13:32:18;;;;;;;4.88;4.35;;;;;;;;;;5070915;28;20251;-87
2021/11/04 13:34:46;;;;;;;7.97;6.07;;;;;;;;;;5071311;28;20192;-86
2021/11/04 13:37:14;;;;;;;5.70;5.10;;;;;;;;;;5071693;28;20219;-87
2021/11/04 13:39:43;;;;;;;8.60;6.13;;;;;;;;;;5070349;28;20609;-87
2021/11/04 13:42:22;;;;;;;7.63;5.78;;;;;;;;;;5070713;28;20733;-87
2021/11/04 13:44:51;;;;;;;5.82;5.00;;;;;;;;;;5055641;28;20198;-88
2021/11/04 13:47:32;;;;;;;5.10;4.60;;;7.60;99.90;;;;;;5072685;28;20200;-87
2021/11/04 13:50:00;;;;;;;4.72;3.97;;;;;;;;;;5066527;28;20221;-86
2021/11/04 13:52:27;;;;;;;8.10;4.35;;;;;;;;;;5071065;28;20228;-86
2021/11/04 13:54:54;;;;;;;5.47;4.90;;;;;;;;;;5070663;28;20309;-87
2021/11/04 13:57:24;;;;;;;5.78;4.68;;;;;;;;;;5065300;28;20205;-87
2021/11/04 13:59:56;;;;;;;7.82;4.90;;;7.60;99.90;;;;;;5071264;28;20199;-86
2021/11/04 14:02:24;;;;;;;4.28;3.75;;;7.50;99.90;;;;;;5070684;28;20218;-86
2021/11/04 14:04:54;;;;;;;5.22;4.30;;;7.40;99.90;;;;;;5070364;28;20208;-87
2021/11/04 14:07:25;;;;;;;5.57;4.40;;;;;;;;;;5070032;28;20203;-87
2021/11/04 14:09:55;;;;;;;6.03;4.80;;;;;;;;;;5070806;28;20321;-88
2021/11/04 14:12:28;;;;;;;5.47;4.05;;;;;;;;;;5070308;28;20277;-86
2021/11/04 14:14:56;;;;;;;5.10;4.40;;;7.80;99.90;;;;;;5067203;28;20253;-87
2021/11/04 14:17:26;;;;;;;5.88;5.10;;;;;;;;;;5070160;28;20212;-87
2021/11/04 14:19:55;;;;;;;6.05;5.10;;;7.80;99.90;;;;;;5070235;28;20274;-88